createdAt,value
2023-05-05T00:00:53.354Z,0.00
2023-05-05T00:01:53.376Z,0.00
2023-05-05T00:02:53.363Z,0.00
2023-05-05T00:03:53.364Z,0.00
2023-05-05T00:04:53.311Z,0.00
2023-05-05T00:05:53.299Z,0.00
2023-05-05T00:06:53.288Z,0.00
2023-05-05T00:07:53.317Z,0.00
2023-05-05T00:08:53.262Z,0.00
2023-05-05T00:09:53.248Z,0.00
2023-05-05T00:10:53.266Z,0.00
2023-05-05T00:11:53.246Z,0.00
2023-05-05T00:12:53.288Z,0.00
2023-05-05T00:13:53.210Z,0.00
2023-05-05T00:14:53.192Z,0.00
2023-05-05T00:15:53.185Z,0.00
2023-05-05T00:16:53.219Z,0.00
2023-05-05T00:17:53.406Z,0.00
2023-05-05T00:18:53.149Z,0.00
2023-05-05T00:19:53.156Z,0.00
2023-05-05T00:20:53.150Z,0.00
2023-05-05T00:21:53.142Z,0.00
2023-05-05T00:22:53.130Z,0.00
2023-05-05T00:23:53.097Z,0.00
2023-05-05T00:24:53.083Z,0.00
2023-05-05T00:25:53.084Z,0.00
2023-05-05T00:26:53.082Z,0.00
2023-05-05T00:27:53.077Z,0.00
2023-05-05T00:28:53.061Z,0.00
2023-05-05T00:29:53.045Z,0.00
2023-05-05T00:30:53.104Z,0.00
2023-05-05T00:31:53.041Z,0.00
2023-05-05T00:32:53.019Z,0.00
2023-05-05T00:33:53.016Z,0.00
2023-05-05T00:34:53.005Z,0.00
2023-05-05T00:35:52.994Z,0.00
2023-05-05T00:36:52.983Z,0.00
2023-05-05T00:37:52.967Z,0.00
2023-05-05T00:38:52.952Z,0.00
2023-05-05T00:39:52.958Z,0.00
2023-05-05T00:40:52.934Z,0.00
2023-05-05T00:41:52.933Z,0.00
2023-05-05T00:42:52.915Z,0.00
2023-05-05T00:43:52.913Z,0.00
2023-05-05T00:44:52.905Z,0.00
2023-05-05T00:45:52.882Z,0.00
2023-05-05T00:46:52.878Z,0.00
2023-05-05T00:47:52.873Z,0.00
2023-05-05T00:48:52.860Z,0.00
2023-05-05T00:49:52.862Z,0.00
2023-05-05T00:50:52.836Z,0.00
2023-05-05T00:51:52.820Z,0.00
2023-05-05T00:52:52.815Z,0.00
2023-05-05T00:53:52.821Z,0.00
2023-05-05T00:54:52.810Z,0.00
2023-05-05T00:55:52.791Z,0.00
2023-05-05T00:56:52.783Z,0.00
2023-05-05T00:57:52.780Z,0.00
2023-05-05T00:58:52.772Z,0.00
2023-05-05T00:59:52.760Z,0.00
2023-05-05T01:00:52.739Z,0.00
2023-05-05T01:01:52.777Z,0.00
2023-05-05T01:02:52.926Z,0.00
2023-05-05T01:03:52.884Z,0.00
2023-05-05T01:04:52.731Z,0.00
2023-05-05T01:05:52.690Z,0.00
2023-05-05T01:06:52.684Z,0.00
2023-05-05T01:07:52.676Z,0.00
2023-05-05T01:08:52.666Z,0.00
2023-05-05T01:10:04.166Z,0.00
2023-05-05T01:10:54.631Z,0.00
2023-05-05T01:11:52.628Z,0.00
2023-05-05T01:12:52.665Z,0.00
2023-05-05T01:13:52.607Z,0.00
2023-05-05T01:14:52.595Z,0.00
2023-05-05T01:15:52.603Z,0.00
2023-05-05T01:16:52.578Z,0.00
2023-05-05T01:17:52.628Z,0.00
2023-05-05T01:18:52.549Z,0.00
2023-05-05T01:19:52.571Z,0.00
2023-05-05T01:20:52.533Z,0.00
2023-05-05T01:21:52.528Z,0.00
2023-05-05T01:22:52.522Z,0.00
2023-05-05T01:23:52.525Z,0.00
2023-05-05T01:24:52.489Z,0.00
2023-05-05T01:25:52.481Z,0.00
2023-05-05T01:26:52.485Z,0.00
2023-05-05T01:27:52.472Z,0.00
2023-05-05T01:28:52.445Z,0.00
2023-05-05T01:29:53.444Z,0.00
2023-05-05T01:30:52.432Z,0.00
2023-05-05T01:31:52.457Z,0.00
2023-05-05T01:32:52.429Z,0.00
2023-05-05T01:33:52.398Z,0.00
2023-05-05T01:34:52.391Z,0.00
2023-05-05T01:35:52.385Z,0.00
2023-05-05T01:36:52.377Z,0.00
2023-05-05T01:37:52.355Z,0.00
2023-05-05T01:38:52.349Z,0.00
2023-05-05T01:39:52.345Z,0.00
2023-05-05T01:40:52.336Z,0.00
2023-05-05T01:41:52.318Z,0.00
2023-05-05T01:42:53.310Z,0.00
2023-05-05T01:43:52.298Z,0.00
2023-05-05T01:44:52.277Z,0.00
2023-05-05T01:45:52.290Z,0.00
2023-05-05T01:46:52.257Z,0.00
2023-05-05T01:47:52.296Z,0.00
2023-05-05T01:48:52.242Z,0.00
2023-05-05T01:49:52.225Z,0.00
2023-05-05T01:50:52.246Z,0.00
2023-05-05T01:51:52.218Z,0.00
2023-05-05T01:52:52.193Z,0.00
2023-05-05T01:53:52.193Z,0.00
2023-05-05T01:54:52.203Z,0.00
2023-05-05T01:55:52.184Z,0.00
2023-05-05T01:56:52.157Z,0.00
2023-05-05T01:57:52.150Z,0.00
2023-05-05T01:58:52.141Z,0.00
2023-05-05T01:59:52.150Z,0.00
2023-05-05T02:00:52.124Z,0.00
2023-05-05T02:01:52.114Z,0.00
2023-05-05T02:02:52.150Z,0.00
2023-05-05T02:03:52.085Z,0.00
2023-05-05T02:04:52.104Z,0.00
2023-05-05T02:05:52.065Z,0.00
2023-05-05T02:06:52.066Z,0.00
2023-05-05T02:07:52.049Z,0.00
2023-05-05T02:08:52.044Z,0.00
2023-05-05T02:09:52.030Z,0.00
2023-05-05T02:10:52.021Z,0.00
2023-05-05T02:11:52.007Z,0.00
2023-05-05T02:12:52.010Z,0.00
2023-05-05T02:13:52.072Z,0.00
2023-05-05T02:14:51.982Z,0.00
2023-05-05T02:15:52.001Z,0.00
2023-05-05T02:16:51.961Z,0.00
2023-05-05T02:17:51.991Z,0.00
2023-05-05T02:18:52.950Z,0.00
2023-05-05T02:19:51.936Z,0.00
2023-05-05T02:20:51.918Z,0.00
2023-05-05T02:21:51.926Z,0.00
2023-05-05T02:22:51.909Z,0.00
2023-05-05T02:23:52.089Z,0.00
2023-05-05T02:24:51.881Z,0.00
2023-05-05T02:25:51.884Z,0.00
2023-05-05T02:26:51.879Z,0.00
2023-05-05T02:27:51.871Z,0.00
2023-05-05T02:28:51.860Z,0.00
2023-05-05T02:29:51.839Z,0.00
2023-05-05T02:30:51.838Z,0.00
2023-05-05T02:31:51.854Z,0.00
2023-05-05T02:32:51.883Z,0.00
2023-05-05T02:33:51.795Z,0.00
2023-05-05T02:34:51.788Z,0.00
2023-05-05T02:35:51.775Z,0.00
2023-05-05T02:36:51.765Z,0.00
2023-05-05T02:37:51.769Z,0.00
2023-05-05T02:38:51.745Z,0.00
2023-05-05T02:39:51.736Z,0.00
2023-05-05T02:40:51.723Z,0.00
2023-05-05T02:41:51.724Z,0.00
2023-05-05T02:42:51.794Z,0.00
2023-05-05T02:43:51.694Z,0.00
2023-05-05T02:44:51.680Z,0.00
2023-05-05T02:45:51.676Z,0.00
2023-05-05T02:46:51.714Z,0.00
2023-05-05T02:47:51.700Z,0.00
2023-05-05T02:48:51.650Z,0.00
2023-05-05T02:49:51.639Z,0.00
2023-05-05T02:50:51.635Z,0.00
2023-05-05T02:51:51.617Z,0.00
2023-05-05T02:52:51.602Z,0.00
2023-05-05T02:53:51.595Z,0.00
2023-05-05T02:54:51.588Z,0.00
2023-05-05T02:55:51.589Z,0.00
2023-05-05T02:56:51.587Z,0.00
2023-05-05T02:57:51.562Z,0.00
2023-05-05T02:58:51.538Z,0.00
2023-05-05T02:59:51.547Z,0.00
2023-05-05T03:00:51.529Z,0.00
2023-05-05T03:01:51.577Z,0.00
2023-05-05T03:02:52.591Z,0.00
2023-05-05T03:03:51.609Z,0.00
2023-05-05T03:04:51.474Z,0.00
2023-05-05T03:05:51.507Z,0.00
2023-05-05T03:06:51.467Z,0.00
2023-05-05T03:07:51.450Z,0.00
2023-05-05T03:08:51.432Z,0.00
2023-05-05T03:09:51.430Z,0.00
2023-05-05T03:10:51.429Z,0.00
2023-05-05T03:11:51.413Z,0.00
2023-05-05T03:12:51.441Z,0.00
2023-05-05T03:13:51.384Z,0.00
2023-05-05T03:14:52.371Z,0.00
2023-05-05T03:15:51.435Z,0.00
2023-05-05T03:16:51.375Z,0.00
2023-05-05T03:17:51.377Z,0.00
2023-05-05T03:18:51.357Z,0.00
2023-05-05T03:19:51.336Z,0.00
2023-05-05T03:20:51.317Z,0.00
2023-05-05T03:21:51.314Z,0.00
2023-05-05T03:22:51.297Z,0.00
2023-05-05T03:23:51.290Z,0.00
2023-05-05T03:24:51.287Z,0.00
2023-05-05T03:25:51.262Z,0.00
2023-05-05T03:26:51.250Z,0.00
2023-05-05T03:27:51.237Z,0.00
2023-05-05T03:28:51.237Z,0.00
2023-05-05T03:29:51.226Z,0.00
2023-05-05T03:30:51.204Z,0.00
2023-05-05T03:31:51.240Z,0.00
2023-05-05T03:32:52.229Z,0.00
2023-05-05T03:33:51.194Z,0.00
2023-05-05T03:34:51.176Z,0.00
2023-05-05T03:35:51.158Z,0.00
2023-05-05T03:36:51.143Z,0.00
2023-05-05T03:37:51.135Z,0.00
2023-05-05T03:38:51.148Z,0.00
2023-05-05T03:39:51.118Z,0.00
2023-05-05T03:40:51.119Z,0.00
2023-05-05T03:41:51.089Z,0.00
2023-05-05T03:42:51.082Z,0.00
2023-05-05T03:43:51.084Z,0.00
2023-05-05T03:44:51.081Z,0.00
2023-05-05T03:45:51.078Z,0.00
2023-05-05T03:46:51.050Z,0.00
2023-05-05T03:47:51.114Z,0.00
2023-05-05T03:48:51.033Z,0.00
2023-05-05T03:49:50.999Z,0.00
2023-05-05T03:50:52.002Z,0.00
2023-05-05T03:51:50.985Z,5.62
2023-05-05T03:52:50.998Z,5.62
2023-05-05T03:53:50.966Z,5.62
2023-05-05T03:54:50.958Z,5.62
2023-05-05T03:55:50.967Z,5.62
2023-05-05T03:56:50.938Z,5.62
2023-05-05T03:57:50.946Z,5.62
2023-05-05T03:58:50.910Z,5.62
2023-05-05T03:59:50.926Z,5.62
2023-05-05T04:00:50.902Z,5.62
2023-05-05T04:01:50.889Z,11.25
2023-05-05T04:02:50.953Z,11.25
2023-05-05T04:03:50.905Z,11.25
2023-05-05T04:04:50.876Z,11.25
2023-05-05T04:05:50.854Z,11.25
2023-05-05T04:06:50.853Z,11.25
2023-05-05T04:07:50.830Z,11.25
2023-05-05T04:08:50.817Z,11.25
2023-05-05T04:09:50.808Z,16.88
2023-05-05T04:10:50.793Z,16.88
2023-05-05T04:11:50.828Z,16.88
2023-05-05T04:12:50.830Z,16.88
2023-05-05T04:13:50.835Z,16.88
2023-05-05T04:14:50.765Z,16.88
2023-05-05T04:15:50.792Z,22.50
2023-05-05T04:16:50.762Z,22.50
2023-05-05T04:17:50.745Z,22.50
2023-05-05T04:18:50.718Z,22.50
2023-05-05T04:19:50.701Z,22.50
2023-05-05T04:20:50.708Z,28.12
2023-05-05T04:21:50.710Z,28.12
2023-05-05T04:22:52.653Z,28.12
2023-05-05T04:23:51.669Z,28.12
2023-05-05T04:24:50.654Z,33.75
2023-05-05T04:25:50.648Z,33.75
2023-05-05T04:26:50.636Z,33.75
2023-05-05T04:27:50.638Z,39.38
2023-05-05T04:28:50.612Z,39.38
2023-05-05T04:29:50.606Z,39.38
2023-05-05T04:30:50.612Z,45.00
2023-05-05T04:31:50.626Z,45.00
2023-05-05T04:32:50.620Z,45.00
2023-05-05T04:33:50.560Z,45.00
2023-05-05T04:34:50.560Z,50.62
2023-05-05T04:35:50.558Z,50.62
2023-05-05T04:36:50.533Z,56.25
2023-05-05T04:37:50.511Z,56.25
2023-05-05T04:38:50.549Z,61.88
2023-05-05T04:39:50.515Z,61.88
2023-05-05T04:40:50.494Z,61.88
2023-05-05T04:41:50.479Z,67.50
2023-05-05T04:42:50.484Z,67.50
2023-05-05T04:43:50.464Z,61.88
2023-05-05T04:44:50.457Z,67.50
2023-05-05T04:45:50.435Z,67.50
2023-05-05T04:46:50.507Z,61.88
2023-05-05T04:47:50.436Z,61.88
2023-05-05T04:48:50.417Z,67.50
2023-05-05T04:49:50.403Z,67.50
2023-05-05T04:50:50.385Z,78.75
2023-05-05T04:51:50.382Z,78.75
2023-05-05T04:52:52.459Z,84.38
2023-05-05T04:53:51.379Z,95.62
2023-05-05T04:54:50.350Z,95.62
2023-05-05T04:55:50.341Z,101.25
2023-05-05T04:56:50.353Z,101.25
2023-05-05T04:57:50.347Z,101.25
2023-05-05T04:58:50.422Z,106.88
2023-05-05T04:59:50.333Z,106.88
2023-05-05T05:00:50.345Z,106.88
2023-05-05T05:01:50.427Z,95.62
2023-05-05T05:02:50.407Z,95.62
2023-05-05T05:03:50.341Z,95.62
2023-05-05T05:04:50.290Z,95.62
2023-05-05T05:05:50.267Z,95.62
2023-05-05T05:08:16.311Z,95.62
2023-05-05T05:09:16.620Z,95.62
2023-05-05T05:10:16.491Z,95.62
2023-05-05T05:11:16.269Z,95.62
2023-05-05T05:12:16.294Z,95.62
2023-05-05T05:13:16.269Z,95.62
2023-05-05T05:14:16.241Z,95.62
2023-05-05T05:15:16.234Z,106.88
2023-05-05T05:16:16.253Z,135.00
2023-05-05T05:17:16.231Z,135.00
2023-05-05T05:18:16.198Z,135.00
2023-05-05T05:19:16.188Z,112.50
2023-05-05T05:20:16.250Z,129.38
2023-05-05T05:21:22.926Z,140.62
2023-05-05T05:22:16.167Z,146.25
2023-05-05T05:23:16.142Z,146.25
2023-05-05T05:24:16.186Z,146.25
2023-05-05T05:25:16.122Z,151.88
2023-05-05T05:26:16.144Z,151.88
2023-05-05T05:27:16.136Z,163.12
2023-05-05T05:28:16.097Z,163.12
2023-05-05T05:29:16.104Z,163.12
2023-05-05T05:30:16.137Z,168.75
2023-05-05T05:31:16.095Z,168.75
2023-05-05T05:32:16.202Z,168.75
2023-05-05T05:33:16.063Z,163.12
2023-05-05T05:34:16.075Z,157.50
2023-05-05T05:35:16.018Z,146.25
2023-05-05T05:36:16.027Z,151.88
2023-05-05T05:37:16.004Z,140.62
2023-05-05T05:38:16.006Z,151.88
2023-05-05T05:39:15.977Z,174.38
2023-05-05T05:40:16.027Z,174.38
2023-05-05T05:41:15.975Z,185.62
2023-05-05T05:42:15.943Z,180.00
2023-05-05T05:43:15.927Z,129.38
2023-05-05T05:44:15.931Z,157.50
2023-05-05T05:45:15.925Z,135.00
2023-05-05T05:46:15.941Z,129.38
2023-05-05T05:47:15.877Z,129.38
2023-05-05T05:48:15.880Z,129.38
2023-05-05T05:49:15.873Z,135.00
2023-05-05T05:50:15.873Z,129.38
2023-05-05T05:51:15.839Z,135.00
2023-05-05T05:52:15.832Z,135.00
2023-05-05T05:53:15.816Z,174.38
2023-05-05T05:54:15.821Z,196.88
2023-05-05T05:55:15.830Z,202.50
2023-05-05T05:56:15.828Z,202.50
2023-05-05T05:57:15.800Z,208.12
2023-05-05T05:58:15.762Z,202.50
2023-05-05T05:59:15.747Z,196.88
2023-05-05T06:00:15.778Z,180.00
2023-05-05T06:01:15.734Z,202.50
2023-05-05T06:02:15.733Z,225.00
2023-05-05T06:03:16.631Z,225.00
2023-05-05T06:04:15.758Z,230.62
2023-05-05T06:05:15.694Z,230.62
2023-05-05T06:06:15.676Z,236.25
2023-05-05T06:07:15.659Z,236.25
2023-05-05T06:08:15.659Z,236.25
2023-05-05T06:09:15.651Z,230.62
2023-05-05T06:10:27.290Z,241.88
2023-05-05T06:11:16.657Z,247.50
2023-05-05T06:12:15.689Z,247.50
2023-05-05T06:13:15.680Z,247.50
2023-05-05T06:14:16.322Z,236.25
2023-05-05T06:15:15.582Z,168.75
2023-05-05T06:16:15.616Z,241.88
2023-05-05T06:17:15.572Z,247.50
2023-05-05T06:18:15.633Z,213.75
2023-05-05T06:19:15.590Z,196.88
2023-05-05T06:20:15.533Z,157.50
2023-05-05T06:21:15.507Z,157.50
2023-05-05T06:22:15.498Z,151.88
2023-05-05T06:23:15.507Z,151.88
2023-05-05T06:24:15.497Z,264.38
2023-05-05T06:25:15.463Z,264.38
2023-05-05T06:26:15.464Z,258.75
2023-05-05T06:27:15.450Z,264.38
2023-05-05T06:28:15.448Z,264.38
2023-05-05T06:29:15.428Z,264.38
2023-05-05T06:30:15.420Z,264.38
2023-05-05T06:31:15.438Z,264.38
2023-05-05T06:32:15.408Z,275.62
2023-05-05T06:33:15.400Z,275.62
2023-05-05T06:34:15.436Z,286.88
2023-05-05T06:35:15.362Z,286.88
2023-05-05T06:36:15.372Z,286.88
2023-05-05T06:37:15.354Z,292.50
2023-05-05T06:38:15.332Z,292.50
2023-05-05T06:39:16.176Z,298.12
2023-05-05T06:40:15.320Z,298.12
2023-05-05T06:41:15.302Z,309.38
2023-05-05T06:42:15.309Z,303.75
2023-05-05T06:43:15.287Z,309.38
2023-05-05T06:44:15.272Z,315.00
2023-05-05T06:45:15.254Z,320.62
2023-05-05T06:46:15.359Z,326.25
2023-05-05T06:47:15.244Z,315.00
2023-05-05T06:48:15.239Z,309.38
2023-05-05T06:49:15.218Z,309.38
2023-05-05T06:50:15.208Z,315.00
2023-05-05T06:51:15.201Z,315.00
2023-05-05T06:52:16.007Z,309.38
2023-05-05T06:53:15.219Z,315.00
2023-05-05T06:54:15.207Z,331.88
2023-05-05T06:55:15.156Z,315.00
2023-05-05T06:56:15.156Z,315.00
2023-05-05T06:57:15.149Z,315.00
2023-05-05T06:58:15.159Z,315.00
2023-05-05T06:59:15.124Z,309.38
2023-05-05T07:00:15.191Z,303.75
2023-05-05T07:01:15.223Z,309.38
2023-05-05T07:02:15.083Z,315.00
2023-05-05T07:03:15.178Z,303.75
2023-05-05T07:04:18.414Z,281.25
2023-05-05T07:05:15.082Z,253.12
2023-05-05T07:06:15.091Z,258.75
2023-05-05T07:07:15.030Z,247.50
2023-05-05T07:08:15.009Z,253.12
2023-05-05T07:09:17.037Z,270.00
2023-05-05T07:10:15.044Z,264.38
2023-05-05T07:11:14.987Z,275.62
2023-05-05T07:12:14.977Z,270.00
2023-05-05T07:13:15.007Z,247.50
2023-05-05T07:14:14.950Z,264.38
2023-05-05T07:15:27.951Z,241.88
2023-05-05T07:16:15.945Z,281.25
2023-05-05T07:17:14.919Z,258.75
2023-05-05T07:18:14.904Z,258.75
2023-05-05T07:19:14.905Z,286.88
2023-05-05T07:20:14.888Z,303.75
2023-05-05T07:21:14.883Z,286.88
2023-05-05T07:22:15.797Z,303.75
2023-05-05T07:24:15.944Z,320.62
2023-05-05T07:25:14.893Z,320.62
2023-05-05T07:26:16.025Z,320.62
2023-05-05T07:28:10.548Z,326.25
2023-05-05T07:28:15.983Z,331.88
2023-05-05T07:29:15.939Z,326.25
2023-05-05T07:30:18.396Z,326.25
2023-05-05T07:31:17.137Z,326.25
2023-05-05T07:32:16.018Z,331.88
2023-05-05T07:33:15.910Z,337.50
2023-05-05T07:34:18.952Z,337.50
2023-05-05T07:35:15.968Z,337.50
2023-05-05T07:36:15.838Z,343.12
2023-05-05T07:37:15.828Z,337.50
2023-05-05T07:38:15.828Z,331.88
2023-05-05T07:39:15.968Z,348.75
2023-05-05T07:40:19.509Z,371.25
2023-05-05T07:41:15.836Z,371.25
2023-05-05T07:42:30.510Z,376.88
2023-05-05T07:43:15.806Z,382.50
2023-05-05T07:44:49.538Z,371.25
2023-05-05T07:45:15.869Z,382.50
2023-05-05T07:46:15.758Z,376.88
2023-05-05T07:47:15.857Z,382.50
2023-05-05T07:48:15.730Z,388.12
2023-05-05T07:49:15.802Z,388.12
2023-05-05T07:50:15.707Z,388.12
2023-05-05T07:51:15.863Z,376.88
2023-05-05T07:52:15.747Z,388.12
2023-05-05T07:53:15.816Z,388.12
2023-05-05T07:54:15.667Z,376.88
2023-05-05T07:55:15.704Z,376.88
2023-05-05T07:56:15.669Z,371.25
2023-05-05T07:57:15.726Z,371.25
2023-05-05T07:58:15.679Z,376.88
2023-05-05T07:59:15.720Z,354.38
2023-05-05T08:00:15.628Z,354.38
2023-05-05T08:01:15.627Z,354.38
2023-05-05T08:02:15.620Z,388.12
2023-05-05T08:03:15.698Z,388.12
2023-05-05T08:04:15.688Z,337.50
2023-05-05T08:05:15.565Z,376.88
2023-05-05T08:06:15.564Z,326.25
2023-05-05T08:07:15.522Z,326.25
2023-05-05T08:08:15.592Z,360.00
2023-05-05T08:09:15.502Z,393.75
2023-05-05T08:10:15.534Z,371.25
2023-05-05T08:11:15.512Z,360.00
2023-05-05T08:12:15.470Z,376.88
2023-05-05T08:13:15.542Z,382.50
2023-05-05T08:14:15.659Z,376.88
2023-05-05T08:15:15.467Z,371.25
2023-05-05T08:16:16.700Z,371.25
2023-05-05T08:17:17.495Z,354.38
2023-05-05T08:18:15.439Z,354.38
2023-05-05T08:19:27.602Z,382.50
2023-05-05T08:20:17.550Z,399.38
2023-05-05T08:21:19.607Z,405.00
2023-05-05T08:22:15.513Z,399.38
2023-05-05T08:23:18.060Z,410.62
2023-05-05T08:24:15.555Z,427.50
2023-05-05T08:25:15.461Z,438.75
2023-05-05T08:26:15.414Z,450.00
2023-05-05T08:27:15.418Z,393.75
2023-05-05T08:28:19.020Z,450.00
2023-05-05T08:29:15.415Z,438.75
2023-05-05T08:30:15.477Z,427.50
2023-05-05T08:31:20.573Z,303.75
2023-05-05T08:32:15.547Z,309.38
2023-05-05T08:33:15.464Z,298.12
2023-05-05T08:34:15.363Z,281.25
2023-05-05T08:35:15.479Z,264.38
2023-05-05T08:36:15.344Z,270.00
2023-05-05T08:37:15.352Z,281.25
2023-05-05T08:38:15.357Z,292.50
2023-05-05T08:39:15.297Z,298.12
2023-05-05T08:40:15.262Z,309.38
2023-05-05T08:41:15.247Z,331.88
2023-05-05T08:42:25.483Z,315.00
2023-05-05T08:43:17.292Z,326.25
2023-05-05T08:44:15.245Z,405.00
2023-05-05T08:45:15.232Z,427.50
2023-05-05T08:46:15.269Z,410.62
2023-05-05T08:47:15.209Z,298.12
2023-05-05T08:48:15.307Z,303.75
2023-05-05T08:49:25.491Z,298.12
2023-05-05T08:50:17.431Z,399.38
2023-05-05T08:51:15.281Z,303.75
2023-05-05T08:52:15.188Z,309.38
2023-05-05T08:53:15.341Z,309.38
2023-05-05T08:54:15.191Z,331.88
2023-05-05T08:55:15.141Z,433.12
2023-05-05T08:56:15.187Z,427.50
2023-05-05T08:57:15.382Z,405.00
2023-05-05T08:58:17.008Z,320.62
2023-05-05T08:59:15.692Z,337.50
2023-05-05T09:00:15.614Z,433.12
2023-05-05T09:01:15.082Z,438.75
2023-05-05T09:02:16.937Z,433.12
2023-05-05T09:03:15.249Z,455.62
2023-05-05T09:04:15.049Z,455.62
2023-05-05T09:05:15.065Z,461.25
2023-05-05T09:06:15.142Z,461.25
2023-05-05T09:07:15.129Z,455.62
2023-05-05T09:08:15.008Z,450.00
2023-05-05T09:09:15.056Z,466.88
2023-05-05T09:10:16.064Z,461.25
2023-05-05T09:11:15.018Z,455.62
2023-05-05T09:12:15.027Z,461.25
2023-05-05T09:13:15.064Z,444.38
2023-05-05T09:14:14.994Z,444.38
2023-05-05T09:15:15.091Z,427.50
2023-05-05T09:16:15.041Z,416.25
2023-05-05T09:17:14.938Z,438.75
2023-05-05T09:18:14.923Z,416.25
2023-05-05T09:19:15.059Z,433.12
2023-05-05T09:20:14.984Z,444.38
2023-05-05T09:21:15.117Z,450.00
2023-05-05T09:22:14.920Z,433.12
2023-05-05T09:23:14.931Z,450.00
2023-05-05T09:24:14.878Z,461.25
2023-05-05T09:25:14.971Z,472.50
2023-05-05T09:26:14.912Z,478.12
2023-05-05T09:27:14.886Z,495.00
2023-05-05T09:28:14.872Z,450.00
2023-05-05T09:29:14.852Z,433.12
2023-05-05T09:30:14.782Z,433.12
2023-05-05T09:31:14.758Z,444.38
2023-05-05T09:32:14.731Z,427.50
2023-05-05T09:33:14.743Z,444.38
2023-05-05T09:34:14.712Z,416.25
2023-05-05T09:35:17.853Z,421.88
2023-05-05T09:36:14.717Z,410.62
2023-05-05T09:38:38.645Z,410.62
2023-05-05T09:38:46.765Z,495.00
2023-05-05T09:39:40.192Z,466.88
2023-05-05T09:40:40.249Z,455.62
2023-05-05T09:41:40.203Z,461.25
2023-05-05T09:42:40.181Z,450.00
2023-05-05T09:43:40.210Z,489.38
2023-05-05T09:44:40.242Z,444.38
2023-05-05T09:45:40.136Z,444.38
2023-05-05T09:46:40.244Z,455.62
2023-05-05T09:47:40.129Z,506.25
2023-05-05T09:48:40.204Z,450.00
2023-05-05T09:49:40.144Z,416.25
2023-05-05T09:50:40.099Z,427.50
2023-05-05T09:51:40.077Z,421.88
2023-05-05T09:52:40.120Z,399.38
2023-05-05T09:53:40.116Z,399.38
2023-05-05T09:54:40.122Z,405.00
2023-05-05T09:55:40.111Z,399.38
2023-05-05T09:56:40.013Z,376.88
2023-05-05T09:57:40.153Z,371.25
2023-05-05T09:58:40.152Z,371.25
2023-05-05T09:59:40.057Z,382.50
2023-05-05T10:00:40.868Z,421.88
2023-05-05T10:01:39.985Z,427.50
2023-05-05T10:02:40.035Z,427.50
2023-05-05T10:03:39.906Z,433.12
2023-05-05T10:04:39.936Z,438.75
2023-05-05T10:05:39.903Z,444.38
2023-05-05T10:06:39.924Z,455.62
2023-05-05T10:07:39.883Z,466.88
2023-05-05T10:08:39.891Z,461.25
2023-05-05T10:09:39.851Z,466.88
2023-05-05T10:10:39.964Z,461.25
2023-05-05T10:11:39.852Z,472.50
2023-05-05T10:12:39.853Z,483.75
2023-05-05T10:13:39.815Z,511.88
2023-05-05T10:14:39.774Z,523.12
2023-05-05T10:15:39.792Z,523.12
2023-05-05T10:16:39.808Z,534.38
2023-05-05T10:17:42.513Z,545.62
2023-05-05T10:18:40.779Z,551.25
2023-05-05T10:19:39.776Z,551.25
2023-05-05T10:20:39.745Z,551.25
2023-05-05T10:21:41.470Z,551.25
2023-05-05T10:22:40.698Z,534.38
2023-05-05T10:23:39.702Z,517.50
2023-05-05T10:24:39.729Z,500.62
2023-05-05T10:25:39.685Z,500.62
2023-05-05T10:26:39.857Z,500.62
2023-05-05T10:27:39.661Z,506.25
2023-05-05T10:28:39.695Z,506.25
2023-05-05T10:29:39.664Z,506.25
2023-05-05T10:30:39.629Z,495.00
2023-05-05T10:31:46.700Z,500.62
2023-05-05T10:33:40.658Z,495.00
2023-05-05T10:34:39.651Z,489.38
2023-05-05T10:38:31.597Z,500.62
2023-05-05T10:39:31.585Z,500.62
2023-05-05T10:40:31.601Z,500.62
2023-05-05T10:41:37.429Z,489.38
2023-05-05T10:42:31.636Z,478.12
2023-05-05T10:43:31.589Z,478.12
2023-05-05T10:44:31.535Z,495.00
2023-05-05T10:45:31.618Z,500.62
2023-05-05T10:46:31.836Z,506.25
2023-05-05T10:47:31.620Z,500.62
2023-05-05T10:48:31.509Z,489.38
2023-05-05T10:49:31.521Z,478.12
2023-05-05T10:50:31.488Z,478.12
2023-05-05T10:51:39.920Z,478.12
2023-05-05T10:52:32.457Z,478.12
2023-05-05T10:53:31.466Z,466.88
2023-05-05T10:54:31.481Z,483.75
2023-05-05T10:55:31.438Z,495.00
2023-05-05T10:56:31.517Z,489.38
2023-05-05T10:59:00.511Z,444.38
2023-05-05T10:59:57.450Z,410.62
2023-05-05T11:00:57.459Z,455.62
2023-05-05T11:01:57.420Z,500.62
2023-05-05T11:02:57.537Z,506.25
2023-05-05T11:03:57.472Z,506.25
2023-05-05T11:04:57.396Z,450.00
2023-05-05T11:05:57.380Z,450.00
2023-05-05T11:06:57.373Z,506.25
2023-05-05T11:07:57.375Z,500.62
2023-05-05T11:08:57.354Z,500.62
2023-05-05T11:09:57.377Z,506.25
2023-05-05T11:10:57.317Z,495.00
2023-05-05T11:11:57.315Z,410.62
2023-05-05T11:12:57.373Z,399.38
2023-05-05T11:13:57.324Z,405.00
2023-05-05T11:14:57.362Z,455.62
2023-05-05T11:15:57.280Z,450.00
2023-05-05T11:16:57.313Z,461.25
2023-05-05T11:17:57.422Z,461.25
2023-05-05T11:18:57.251Z,421.88
2023-05-05T11:19:57.235Z,433.12
2023-05-05T11:20:57.223Z,421.88
2023-05-05T11:21:57.211Z,416.25
2023-05-05T11:22:57.222Z,393.75
2023-05-05T11:23:57.190Z,320.62
2023-05-05T11:24:57.178Z,326.25
2023-05-05T11:25:57.170Z,331.88
2023-05-05T11:26:57.154Z,343.12
2023-05-05T11:27:57.157Z,354.38
2023-05-05T11:28:57.148Z,360.00
2023-05-05T11:29:57.136Z,388.12
2023-05-05T11:30:58.041Z,438.75
2023-05-05T11:31:57.132Z,376.88
2023-05-05T11:32:57.149Z,427.50
2023-05-05T11:33:57.105Z,371.25
2023-05-05T11:34:57.086Z,376.88
2023-05-05T11:35:57.089Z,388.12
2023-05-05T11:36:57.074Z,455.62
2023-05-05T11:38:11.543Z,466.88
2023-05-05T11:38:57.066Z,393.75
2023-05-05T11:39:57.037Z,393.75
2023-05-05T11:40:57.053Z,466.88
2023-05-05T11:41:57.031Z,489.38
2023-05-05T11:42:56.994Z,500.62
2023-05-05T11:44:03.528Z,506.25
2023-05-05T11:44:56.989Z,495.00
2023-05-05T11:45:57.012Z,461.25
2023-05-05T11:46:57.180Z,405.00
2023-05-05T11:47:57.090Z,365.62
2023-05-05T11:48:56.948Z,331.88
2023-05-05T11:49:56.945Z,292.50
2023-05-05T11:50:56.934Z,281.25
2023-05-05T11:51:56.930Z,275.62
2023-05-05T11:52:56.901Z,270.00
2023-05-05T11:53:58.512Z,270.00
2023-05-05T11:54:56.888Z,281.25
2023-05-05T11:55:56.890Z,286.88
2023-05-05T11:56:56.864Z,303.75
2023-05-05T11:57:56.886Z,337.50
2023-05-05T11:58:57.501Z,354.38
2023-05-05T11:59:56.952Z,376.88
2023-05-05T12:00:56.912Z,376.88
2023-05-05T12:01:56.811Z,388.12
2023-05-05T12:02:56.956Z,388.12
2023-05-05T12:03:57.001Z,393.75
2023-05-05T12:04:56.908Z,399.38
2023-05-05T12:05:56.799Z,393.75
2023-05-05T12:06:56.762Z,382.50
2023-05-05T12:07:56.791Z,371.25
2023-05-05T12:08:56.777Z,360.00
2023-05-05T12:09:56.745Z,360.00
2023-05-05T12:10:56.719Z,365.62
2023-05-05T12:11:56.714Z,438.75
2023-05-05T12:12:56.755Z,438.75
2023-05-05T12:14:15.105Z,455.62
2023-05-05T12:14:56.775Z,393.75
2023-05-05T12:15:56.713Z,371.25
2023-05-05T12:16:56.667Z,371.25
2023-05-05T12:18:11.892Z,376.88
2023-05-05T12:18:56.650Z,371.25
2023-05-05T12:19:56.640Z,365.62
2023-05-05T12:20:56.638Z,360.00
2023-05-05T12:21:56.613Z,360.00
2023-05-05T12:22:56.597Z,371.25
2023-05-05T12:23:56.605Z,388.12
2023-05-05T12:24:56.595Z,388.12
2023-05-05T12:25:56.566Z,393.75
2023-05-05T12:26:56.568Z,388.12
2023-05-05T12:27:56.553Z,382.50
2023-05-05T12:28:56.550Z,371.25
2023-05-05T12:29:56.550Z,365.62
2023-05-05T12:30:56.569Z,382.50
2023-05-05T12:31:56.603Z,360.00
2023-05-05T12:32:56.564Z,376.88
2023-05-05T12:33:56.682Z,354.38
2023-05-05T12:34:56.489Z,360.00
2023-05-05T12:35:56.494Z,365.62
2023-05-05T12:36:56.500Z,360.00
2023-05-05T12:37:56.465Z,348.75
2023-05-05T12:38:56.446Z,326.25
2023-05-05T12:39:56.459Z,315.00
2023-05-05T12:40:56.424Z,309.38
2023-05-05T12:41:56.424Z,298.12
2023-05-05T12:42:56.413Z,303.75
2023-05-05T12:43:56.395Z,298.12
2023-05-05T12:44:56.387Z,292.50
2023-05-05T12:45:56.386Z,281.25
2023-05-05T12:46:56.372Z,286.88
2023-05-05T12:47:56.394Z,292.50
2023-05-05T12:48:56.338Z,315.00
2023-05-05T12:49:56.512Z,343.12
2023-05-05T12:50:56.324Z,371.25
2023-05-05T12:52:11.563Z,399.38
2023-05-05T12:52:56.324Z,405.00
2023-05-05T12:53:56.298Z,393.75